METAR Data
IDs: Format: Raw Decoded Include TAF

Data at: 1408 UTC 21 Apr 2021

METAR for:KBRL (Burlington/SE Iowa R, IA, US)
Text:KBRL 211353Z AUTO 27004KT 10SM SCT100 03/M05 A3019 RMK AO2 SLP227 T00281050
Temperature: 2.8°C ( 37°F)
Dewpoint: -5.0°C ( 23°F) [RH = 56%]
Pressure (altimeter):30.19 inches Hg (1022.4 mb) [Sea level pressure: 1022.7 mb]
Winds:from the W (270 degrees) at 5 MPH (4 knots; 2.1 m/s)
Visibility:10 or more sm (16+ km)
Ceiling:at least 12,000 feet AGL
Clouds: scattered clouds at 10000 feet AGL
QC Flag:automated observation with no human augmentation